METAR Data
IDs: Format: Raw Decoded Include TAF

Data at: 1840 UTC 26 Sep 2021

KMLI 261752Z 21016G23KT 10SM CLR 28/09 A2987 RMK AO2 PK WND 20026/1739 SLP112 T02780094 10283 20128 58029